AKDT,Max TemperatureF,Mean TemperatureF,Min TemperatureF,Max Dew PointF,MeanDew PointF,Min DewpointF,Max Humidity, Mean Humidity, Min Humidity, Max Sea Level PressureIn, Mean Sea Level PressureIn, Min Sea Level PressureIn, Max VisibilityMiles, Mean VisibilityMiles, Min VisibilityMiles, Max Wind SpeedMPH, Mean Wind SpeedMPH, Max Gust SpeedMPH,PrecipitationIn, CloudCover, Events, WindDirDegrees
2012-9-1,53,46,39,46,39,34,87,83,72,29.93,29.88,29.84,10,10,6,6,1,,0.00,3,,346
2012-9-2,57,54,51,48,47,46,82,75,67,30.08,30.06,30.05,10,10,10,12,6,,0.00,7,,125
2012-9-3,57,54,51,52,49,46,88,80,72,30.10,30.06,30.01,10,9,2,22,6,26,0.00,8,,132
2012-9-4,60,56,51,52,47,43,88,74,59,30.27,30.15,30.00,10,10,4,15,8,20,0.00,7,,182
2012-9-5,55,53,51,50,46,45,82,75,67,30.29,30.21,30.12,10,10,4,17,6,24,0.00,8,,136
2012-9-6,57,54,51,46,44,43,77,68,63,30.35,30.27,30.19,10,10,10,14,7,23,0.00,5,,194
2012-9-7,53,50,46,48,45,41,88,81,76,30.36,30.15,29.93,10,9,3,17,5,26,0.00,7,,115
2012-9-8,53,50,46,46,45,43,93,83,72,29.99,29.75,29.47,10,9,1,9,2,,0.00,7,,323
2012-9-9,55,50,46,46,45,43,93,82,67,29.62,29.48,29.42,10,10,6,12,2,,0.00,8,,107
2012-9-10,57,52,46,45,44,41,87,81,63,29.96,29.82,29.63,10,10,6,12,3,,0.00,7,,98
2012-9-11,53,48,42,45,42,37,93,81,62,30.09,30.02,29.93,10,9,1,13,3,16,0.00,8,,129
2012-9-12,55,50,46,52,47,43,94,86,77,29.98,29.88,29.78,10,9,2,9,3,,0.00,8,,80
2012-9-13,53,50,46,48,45,43,88,85,76,29.96,29.76,29.53,10,9,2,16,3,21,0.00,8,,339
2012-9-14,55,52,48,46,45,45,87,77,67,30.23,30.06,29.72,10,10,8,10,5,,0.00,8,,152
2012-9-15,53,50,48,46,45,45,87,80,76,30.38,30.33,30.24,10,10,7,13,5,,0.00,8,,116
2012-9-16,55,52,50,46,44,43,82,74,63,30.38,30.30,30.14,10,10,5,12,7,,0.00,8,,131
2012-9-17,55,52,50,48,45,43,87,77,63,30.19,30.11,30.05,10,10,5,17,9,25,0.00,6,,168
2012-9-18,55,48,42,45,42,37,87,76,62,30.28,30.24,30.19,10,10,8,8,3,,0.00,7,,155
2012-9-19,53,46,39,46,42,36,93,81,71,30.31,30.27,30.25,10,10,0,8,2,,0.00,7,,327
2012-9-20,55,52,48,50,47,45,88,85,77,30.27,30.17,30.04,10,7,2,8,4,,0.00,8,,326
2012-9-21,60,56,51,54,50,46,94,84,72,30.05,30.03,30.01,10,9,1,5,0,,0.00,7,,194
2012-9-22,60,56,51,52,49,46,88,77,63,30.02,29.97,29.91,10,10,8,13,3,21,0.00,8,,133
2012-9-23,60,55,50,52,48,46,88,75,67,30.05,29.99,29.94,10,10,7,16,9,23,0.00,8,,144
2012-9-24,53,50,48,46,45,43,87,80,72,30.22,30.15,30.05,10,10,4,14,6,20,0.00,8,,137
2012-9-25,53,50,48,46,44,41,93,81,62,30.22,30.01,29.84,10,10,9,24,4,31,0.00,8,,128
2012-9-26,55,48,44,48,42,37,87,74,54,29.89,29.72,29.22,10,10,8,21,10,26,0.00,8,,135
2012-9-27,55,52,48,48,42,39,82,78,66,29.65,29.49,29.19,10,10,8,24,14,31,0.00,8,,139
2012-9-28,51,48,46,45,42,39,87,79,71,29.83,29.73,29.64,10,10,10,18,11,24,0.00,8,,128
2012-9-29,51,46,42,43,41,37,87,78,71,30.02,29.91,29.83,10,10,6,14,7,16,0.00,7,,131
2012-9-30,51,45,39,41,37,36,87,75,54,30.15,30.06,29.88,10,10,10,10,4,,0.00,4,,107